Time;durP1;ratioP1;P1;durP2;ratioP2;P2;SDS_P1;SDS_P2;PMS_P1;PMS_P2;Temp;Humidity;BMP_temperature;BMP_pressure;BME280_temperature;BME280_humidity;BME280_pressure;Samples;Min_cycle;Max_cycle;Signal;HPM_P1;HPM_P2
2021/06/22 00:01:10;;;;;;;;;0.00;0.00;;;;;21.78;52.41;100560.38;4940789;28;45440;-67
2021/06/22 00:03:35;;;;;;;;;1.00;1.00;;;;;21.78;53.03;100560.38;4955275;28;45669;-67
2021/06/22 00:06:00;;;;;;;;;2.00;1.00;;;;;21.74;52.21;100550.75;4942103;28;64670;-67
2021/06/22 00:08:26;;;;;;;;;0.00;0.00;;;;;21.75;53.23;100553.34;4942646;28;45250;-67
2021/06/22 00:10:51;;;;;;;;;1.00;1.00;;;;;21.71;52.74;100557.28;4957859;28;45938;-67
2021/06/22 00:13:16;;;;;;;;;2.50;1.50;;;;;21.77;53.07;100564.94;4949970;28;45559;-67
2021/06/22 00:15:42;;;;;;;;;1.50;1.50;;;;;21.78;53.40;100573.94;4941537;28;59511;-67
2021/06/22 00:18:08;;;;;;;;;1.75;1.75;;;;;21.76;52.97;100565.06;4941396;28;47613;-67
2021/06/22 00:20:33;;;;;;;;;1.25;1.00;;;;;21.74;53.59;100556.19;4941646;28;45424;-67
2021/06/22 00:22:58;;;;;;;;;1.00;1.00;;;;;21.79;52.67;100560.25;4941560;28;45672;-67
2021/06/22 00:25:24;;;;;;;;;1.00;1.00;;;;;21.75;53.23;100553.34;4942862;28;45493;-67
2021/06/22 00:27:50;;;;;;;;;0.50;0.50;;;;;21.79;53.21;100557.53;4941107;28;57559;-67
2021/06/22 00:30:16;;;;;;;;;0.00;0.00;;;;;21.79;52.62;100560.25;4957660;28;45202;-67
2021/06/22 00:32:41;;;;;;;;;1.00;1.00;;;;;21.79;52.91;100552.09;4957764;28;45431;-67
2021/06/22 00:35:07;;;;;;;;;1.00;1.00;;;;;21.81;53.15;100549.25;4941283;28;52321;-67
2021/06/22 00:37:32;;;;;;;;;1.25;1.25;;;;;21.82;52.76;100560.00;4942630;28;45231;-67
2021/06/22 00:39:58;;;;;;;;;0.00;0.00;;;;;21.79;52.35;100554.81;4955807;28;55587;-67
2021/06/22 00:42:23;;;;;;;;;1.00;1.00;;;;;21.75;53.05;100558.78;4942243;28;45767;-67
2021/06/22 00:44:54;;;;;;;;;0.00;0.00;;;;;21.73;52.56;100554.44;4941174;28;51628;-67
2021/06/22 00:47:19;;;;;;;;;3.00;0.50;;;;;21.74;53.06;100562.47;4944733;28;46069;-67
2021/06/22 00:49:45;;;;;;;;;1.75;0.00;;;;;21.74;53.31;100562.47;4950441;28;45338;-67
2021/06/22 00:52:11;;;;;;;;;3.50;0.00;;;;;21.75;52.97;100561.50;4946142;28;45172;-67
2021/06/22 00:54:36;;;;;;;;;0.00;0.00;;;;;21.78;53.50;100558.50;4927248;28;69004;-67
2021/06/22 00:57:11;;;;;;;;;1.00;1.00;;;;;21.74;53.33;100553.47;4956295;28;47719;-67
2021/06/22 00:59:36;;;;;;;;;2.00;1.00;;;;;21.69;53.57;100550.28;4942448;28;45464;-67
2021/06/22 01:02:05;;;;;;;;;1.00;1.00;;;;;21.69;53.36;100563.84;4941070;28;45573;-67
2021/06/22 01:04:30;;;;;;;;;1.00;1.00;;;;;21.68;53.14;100565.69;4942199;28;45353;-67
2021/06/22 01:06:56;;;;;;;;;3.00;1.00;;;;;21.68;53.24;100560.25;4940959;28;47158;-67
2021/06/22 01:09:22;;;;;;;;;1.50;1.50;;;;;21.67;53.57;100557.66;4940429;28;45528;-67
2021/06/22 01:11:47;;;;;;;;;3.00;1.25;;;;;21.64;53.51;100561.50;4942327;28;45351;-67
2021/06/22 01:14:13;;;;;;;;;1.00;1.00;;;;;21.62;53.93;100560.78;4949892;28;62325;-67
2021/06/22 01:16:38;;;;;;;;;1.25;1.25;;;;;21.57;54.42;100565.72;4941366;28;60949;-67
2021/06/22 01:19:05;;;;;;;;;2.00;2.00;;;;;21.57;54.04;100557.59;4941090;28;66524;-67
2021/06/22 01:21:31;;;;;;;;;2.00;2.00;;;;;21.52;53.92;100544.38;4942055;28;45203;-67
2021/06/22 01:24:14;;;;;;;;;3.00;2.00;;;;;21.52;54.42;100557.94;4940596;28;45461;-67
2021/06/22 01:26:47;;;;;;;;;2.00;2.00;;;;;21.50;53.96;100546.34;4940839;28;46366;-67
2021/06/22 01:29:13;;;;;;;;;1.00;1.00;;;;;21.48;54.35;100550.16;4954575;28;45330;-67
2021/06/22 01:31:38;;;;;;;;;2.00;1.25;;;;;21.40;54.78;100546.19;4940795;28;45468;-67
2021/06/22 01:34:04;;;;;;;;;3.75;3.00;;;;;21.36;54.57;100544.72;4940235;28;52163;-67
2021/06/22 01:36:31;;;;;;;;;2.00;2.00;;;;;21.33;54.53;100535.94;4956665;28;45401;-67
2021/06/22 01:38:56;;;;;;;;;2.00;2.00;;;;;21.31;55.13;100543.38;4941760;28;45292;-67
2021/06/22 01:41:22;;;;;;;;;1.50;1.50;;;;;21.33;54.82;100541.38;4952236;28;45250;-67
2021/06/22 01:43:47;;;;;;;;;2.75;2.75;;;;;21.38;55.09;100540.00;4958502;28;45480;-67
2021/06/22 01:46:13;;;;;;;;;2.00;2.00;;;;;21.37;55.25;100543.72;4940650;28;74585;-67
2021/06/22 01:48:38;;;;;;;;;2.00;2.00;;;;;21.37;55.23;100538.31;4952365;28;63047;-67
2021/06/22 01:51:04;;;;;;;;;3.00;3.00;;;;;21.34;54.85;100540.41;4940176;28;45252;-67
2021/06/22 01:53:29;;;;;;;;;1.75;1.00;;;;;21.30;55.31;100547.94;4969148;28;45332;-67
2021/06/22 01:55:55;;;;;;;;;1.00;1.00;;;;;21.28;55.33;100544.47;4956419;28;45198;-67
2021/06/22 01:58:21;;;;;;;;;2.00;2.00;;;;;21.14;55.52;100525.72;4941325;28;45364;-67
2021/06/22 02:00:48;;;;;;;;;1.00;1.00;;;;;21.18;55.69;100533.47;4941796;28;45326;-67
2021/06/22 02:03:15;;;;;;;;;2.00;2.00;;;;;20.98;55.88;100509.78;4941402;28;45646;-67
2021/06/22 02:05:41;;;;;;;;;2.75;1.75;;;;;21.08;55.88;100533.38;4940224;28;45453;-67
2021/06/22 02:08:06;;;;;;;;;1.00;1.00;;;;;21.07;55.60;100531.63;4955988;28;45357;-67
2021/06/22 02:10:31;;;;;;;;;2.00;1.00;;;;;21.09;55.64;100545.94;4939542;28;62470;-67
2021/06/22 02:12:57;;;;;;;;;2.00;1.75;;;;;21.07;56.11;100550.63;4950249;28;64324;-67
2021/06/22 02:15:22;;;;;;;;;1.75;1.75;;;;;21.04;56.21;100564.44;4940785;28;61292;-67
2021/06/22 02:17:48;;;;;;;;;2.75;2.75;;;;;20.96;55.99;100555.19;4941110;28;45155;-67
2021/06/22 02:20:14;;;;;;;;;1.25;1.25;;;;;21.02;56.35;100565.56;4941357;28;45467;-67
2021/06/22 02:22:39;;;;;;;;;2.00;2.00;;;;;20.94;56.18;100559.88;4956235;28;45273;-67
2021/06/22 02:25:06;;;;;;;;;3.75;2.75;;;;;20.96;56.41;100557.91;4940635;28;53702;-67
2021/06/22 02:27:32;;;;;;;;;1.75;1.75;;;;;20.95;56.70;100557.03;4941029;28;45393;-67
2021/06/22 02:29:57;;;;;;;;;3.00;2.00;;;;;20.94;56.72;100560.72;4940049;28;45500;-67
2021/06/22 02:32:23;;;;;;;;;2.00;2.00;;;;;20.85;56.66;100540.63;4939804;28;45383;-67
2021/06/22 02:34:49;;;;;;;;;2.00;2.00;;;;;20.90;57.15;100549.25;4956069;28;45467;-67
2021/06/22 02:37:14;;;;;;;;;2.00;2.00;;;;;20.85;56.98;100535.19;4957293;28;45464;-67
2021/06/22 02:39:39;;;;;;;;;5.00;3.25;;;;;20.89;56.55;100544.81;4938527;28;65131;-67
2021/06/22 02:42:05;;;;;;;;;2.25;2.00;;;;;20.93;56.81;100556.28;4939348;28;52566;-67
2021/06/22 02:44:31;;;;;;;;;3.00;2.00;;;;;20.92;56.67;100546.44;4948697;28;46951;-67
2021/06/22 02:46:56;;;;;;;;;2.25;2.25;;;;;20.93;56.89;100553.56;4942597;28;45499;-67
2021/06/22 02:49:22;;;;;;;;;3.00;1.00;;;;;20.88;56.88;100553.94;4951086;28;45251;-67
2021/06/22 02:51:47;;;;;;;;;4.75;3.00;;;;;20.94;56.81;100563.44;4938902;28;61673;-67
2021/06/22 02:54:12;;;;;;;;;3.50;3.50;;;;;20.92;57.23;100563.56;4954776;28;73344;-67
2021/06/22 02:56:38;;;;;;;;;2.00;2.00;;;;;20.92;57.23;100569.00;4939255;28;52866;-67
2021/06/22 02:59:03;;;;;;;;;3.75;2.50;;;;;20.89;57.43;100557.53;4939004;28;59803;-67
2021/06/22 03:01:28;;;;;;;;;3.50;2.25;;;;;20.91;57.48;100567.28;4938954;28;56774;-67
2021/06/22 03:03:54;;;;;;;;;3.75;3.00;;;;;20.85;57.48;100564.19;4956759;28;46299;-67
2021/06/22 03:06:19;;;;;;;;;5.25;3.25;;;;;20.86;57.41;100571.31;4949656;28;69167;-67
2021/06/22 03:08:45;;;;;;;;;4.75;4.75;;;;;20.86;57.46;100568.59;4944416;28;45334;-67
2021/06/22 03:11:10;;;;;;;;;4.50;3.50;;;;;20.82;57.79;100565.28;4948660;28;60655;-67
2021/06/22 03:13:35;;;;;;;;;3.00;3.00;;;;;20.81;57.77;100562.69;4964509;28;45567;-67
2021/06/22 03:16:01;;;;;;;;;4.00;4.00;;;;;20.78;58.14;100555.66;4959954;28;45382;-67
2021/06/22 03:18:26;;;;;;;;;4.00;4.00;;;;;20.66;58.19;100534.91;4941278;28;45674;-67
2021/06/22 03:20:52;;;;;;;;;4.00;3.75;;;;;20.79;58.31;100561.94;4954103;28;45475;-67
2021/06/22 03:23:17;;;;;;;;;3.75;3.75;;;;;20.79;58.16;100562.81;4940372;28;64533;-67
2021/06/22 03:25:42;;;;;;;;;7.25;6.00;;;;;20.75;58.41;100557.72;4943803;28;68597;-67
2021/06/22 03:28:08;;;;;;;;;8.00;6.00;;;;;20.78;58.78;100560.19;4952169;28;45444;-67
2021/06/22 03:30:33;;;;;;;;;3.00;3.00;;;;;20.75;58.93;100555.91;4941180;28;45727;-67
2021/06/22 03:32:59;;;;;;;;;6.00;6.00;;;;;20.75;59.15;100555.91;4942403;28;46170;-67
2021/06/22 03:35:26;;;;;;;;;7.50;6.00;;;;;20.72;59.40;100553.41;4941452;28;45380;-67
2021/06/22 03:37:52;;;;;;;;;7.50;7.00;;;;;20.79;59.28;100575.50;4958089;28;45380;-67
2021/06/22 03:40:19;;;;;;;;;5.00;5.00;;;;;20.77;59.58;100570.19;4957191;28;66008;-66
2021/06/22 03:42:45;;;;;;;;;6.50;6.50;;;;;20.74;59.32;100565.00;4942001;28;45351;-67
2021/06/22 03:45:11;;;;;;;;;6.25;5.75;;;;;20.82;59.49;100572.56;4955034;28;45743;-67
2021/06/22 03:47:36;;;;;;;;;10.75;10.25;;;;;20.77;59.84;100567.50;4949300;28;45472;-67
2021/06/22 03:50:02;;;;;;;;;9.00;7.00;;;;;20.82;59.67;100567.13;4948671;28;55606;-67
2021/06/22 03:52:28;;;;;;;;;8.50;7.00;;;;;20.84;59.69;100573.28;4943270;28;45930;-67
2021/06/22 03:54:53;;;;;;;;;8.25;8.25;;;;;20.85;59.92;100565.03;4942851;28;45451;-67
2021/06/22 03:57:19;;;;;;;;;7.00;7.00;;;;;20.90;59.58;100589.97;4958565;28;45550;-67
2021/06/22 03:59:44;;;;;;;;;5.50;5.50;;;;;20.97;59.52;100586.78;4943197;28;45530;-67
2021/06/22 04:02:09;;;;;;;;;7.00;6.00;;;;;20.99;59.53;100582.94;4941108;28;64214;-67
2021/06/22 04:04:35;;;;;;;;;6.25;6.00;;;;;21.04;59.98;100590.72;4941677;28;45262;-67
2021/06/22 04:07:00;;;;;;;;;9.00;9.00;;;;;20.96;59.22;100580.47;4942477;28;59218;-67
2021/06/22 04:09:26;;;;;;;;;8.00;8.00;;;;;20.98;59.50;100599.34;4941516;28;45398;-67
2021/06/22 04:11:52;;;;;;;;;6.25;6.00;;;;;20.83;60.01;100585.13;4957862;28;47262;-67
2021/06/22 04:14:17;;;;;;;;;8.00;8.00;;;;;20.95;59.99;100607.72;4950965;28;45251;-67
2021/06/22 04:16:42;;;;;;;;;8.25;7.75;;;;;20.91;59.96;100609.81;4942813;28;52390;-67
2021/06/22 04:19:08;;;;;;;;;10.00;8.75;;;;;20.86;60.06;100612.88;4941871;28;72114;-67
2021/06/22 04:21:33;;;;;;;;;7.25;6.50;;;;;20.85;60.27;100607.59;4941096;28;58371;-67
2021/06/22 04:23:59;;;;;;;;;8.00;6.25;;;;;20.85;60.57;100607.59;4941709;28;68111;-67
2021/06/22 04:26:24;;;;;;;;;7.50;7.50;;;;;20.85;60.28;100613.00;4941115;28;59682;-67
2021/06/22 04:28:49;;;;;;;;;7.00;7.00;;;;;20.83;60.62;100607.72;4956847;28;67289;-67
2021/06/22 04:31:15;;;;;;;;;9.00;9.00;;;;;20.87;60.35;100616.47;4941466;28;46486;-67
2021/06/22 04:33:40;;;;;;;;;8.25;8.25;;;;;20.86;60.38;100609.28;4942007;28;65280;-67
2021/06/22 04:36:06;;;;;;;;;10.25;9.75;;;;;20.84;60.80;100612.13;4941638;28;45504;-67
2021/06/22 04:38:31;;;;;;;;;6.25;6.25;;;;;20.80;60.55;100607.06;4956481;28;61082;-67
2021/06/22 04:40:57;;;;;;;;;9.25;9.25;;;;;20.88;60.52;100612.75;4941145;28;46182;-67
2021/06/22 04:43:22;;;;;;;;;6.50;6.50;;;;;20.89;60.45;100609.06;4956849;28;57006;-67
2021/06/22 04:45:47;;;;;;;;;9.00;9.00;;;;;20.95;61.01;100613.13;4941639;28;45301;-67
2021/06/22 04:48:13;;;;;;;;;8.25;8.25;;;;;20.96;60.74;100609.44;4953747;28;57660;-67
2021/06/22 04:50:38;;;;;;;;;10.50;8.50;;;;;20.98;60.42;100610.19;4957524;28;66772;-67
2021/06/22 04:53:04;;;;;;;;;8.50;6.50;;;;;20.99;59.85;100615.50;4924284;28;66341;-67
2021/06/22 04:55:29;;;;;;;;;6.75;5.75;;;;;20.92;59.67;100608.84;4957163;28;45361;-67
2021/06/22 04:57:59;;;;;;;;;7.25;6.50;;;;;20.94;60.14;100620.41;4941220;28;45333;-67
2021/06/22 05:00:24;;;;;;;;;6.00;6.00;;;;;20.92;60.06;100625.09;4942201;28;46283;-67
2021/06/22 05:02:50;;;;;;;;;7.25;7.25;;;;;20.83;60.30;100610.41;4957075;28;45203;-67
2021/06/22 05:05:15;;;;;;;;;8.50;7.50;;;;;20.86;60.73;100617.44;4941084;28;45240;-67
2021/06/22 05:07:41;;;;;;;;;8.75;8.75;;;;;20.85;60.53;100616.59;4940975;28;45371;-67
2021/06/22 05:10:07;;;;;;;;;6.75;6.00;;;;;20.83;60.51;100613.13;4941665;28;45823;-67
2021/06/22 05:12:32;;;;;;;;;5.00;5.00;;;;;20.81;60.11;100625.06;4950125;28;46538;-67
2021/06/22 05:14:58;;;;;;;;;7.50;6.00;;;;;20.78;60.37;100617.16;4953457;28;59501;-67
2021/06/22 05:17:23;;;;;;;;;3.25;3.25;;;;;20.73;60.31;100617.50;4941231;28;65538;-67
2021/06/22 05:19:49;;;;;;;;;5.75;5.75;;;;;20.69;60.48;100616.88;4947717;28;67379;-67
2021/06/22 05:22:14;;;;;;;;;5.50;5.00;;;;;20.61;60.47;100616.56;4965603;28;60705;-67
2021/06/22 05:24:40;;;;;;;;;4.75;4.75;;;;;20.61;60.85;100630.13;4954653;28;45273;-66
2021/06/22 05:27:06;;;;;;;;;4.00;4.00;;;;;20.62;60.89;100628.31;4939276;28;66831;-67
2021/06/22 05:29:32;;;;;;;;;6.75;6.50;;;;;20.61;60.82;100638.28;4941757;28;47048;-67
2021/06/22 05:31:57;;;;;;;;;8.00;6.00;;;;;20.61;61.35;100634.72;4956587;28;45280;-67
2021/06/22 05:34:22;;;;;;;;;7.00;7.00;;;;;20.62;61.17;100626.47;4957035;28;45294;-67
2021/06/22 05:36:48;;;;;;;;;7.25;6.50;;;;;20.50;61.23;100619.28;4941798;28;45300;-67
2021/06/22 05:39:13;;;;;;;;;9.00;9.00;;;;;20.59;61.61;100634.81;4940336;28;68657;-67
2021/06/22 05:41:39;;;;;;;;;9.25;9.25;;;;;20.58;61.60;100634.94;4939506;28;64681;-68
2021/06/22 05:44:04;;;;;;;;;10.50;8.50;;;;;20.57;62.05;100644.94;4941910;28;45329;-67
2021/06/22 05:46:30;;;;;;;;;11.00;10.25;;;;;20.58;62.19;100643.06;4941600;28;45366;-67
2021/06/22 05:48:55;;;;;;;;;13.75;11.00;;;;;20.49;61.96;100629.22;4968445;28;67936;-67
2021/06/22 05:51:21;;;;;;;;;9.75;8.50;;;;;20.58;62.35;100638.53;4939919;28;54499;-67
2021/06/22 05:53:46;;;;;;;;;11.25;10.75;;;;;20.64;62.59;100643.50;4941236;28;45445;-67
2021/06/22 05:56:11;;;;;;;;;13.50;11.75;;;;;20.66;62.07;100638.81;4939669;28;64991;-67
2021/06/22 05:58:37;;;;;;;;;11.00;11.00;;;;;20.65;62.21;100645.25;4940992;28;53120;-67
2021/06/22 06:01:02;;;;;;;;;9.50;9.50;;;;;20.66;62.07;100648.81;4940068;28;45978;-67
2021/06/22 06:03:28;;;;;;;;;12.25;10.50;;;;;20.59;62.33;100640.25;4939502;28;57651;-67
2021/06/22 06:05:53;;;;;;;;;12.25;11.75;;;;;20.63;62.23;100649.03;4939480;28;62132;-67
2021/06/22 06:08:18;;;;;;;;;14.25;12.75;;;;;20.64;62.32;100662.47;4939224;28;62663;-67
2021/06/22 06:10:44;;;;;;;;;11.75;10.50;;;;;20.52;62.47;100649.84;4940745;28;62220;-67
2021/06/22 06:13:09;;;;;;;;;12.50;11.75;;;;;20.64;62.82;100670.63;4947372;28;55829;-67
2021/06/22 06:15:35;;;;;;;;;13.75;12.75;;;;;20.65;62.65;100674.22;4941058;28;51019;-67
2021/06/22 06:18:27;;;;;;;;;12.75;11.75;;;;;20.62;62.99;100659.00;4943511;28;46171;-69
2021/06/22 06:21:23;;;;;;;;;;;;;;;;;;;;;
2021/06/22 06:23:49;;;;;;;;;12.00;11.50;;;;;20.55;62.71;100638.75;4952233;28;68930;-68
2021/06/22 06:26:18;;;;;;;;;16.50;14.25;;;;;20.55;62.91;100636.06;4943265;28;45399;-68
2021/06/22 06:29:03;;;;;;;;;;;;;;;;;;;;;
2021/06/22 06:31:39;;;;;;;;;16.00;15.00;;;;;20.71;63.03;100662.88;4948297;28;71318;-69
2021/06/22 06:34:37;;;;;;;;;;;;;;;;;;;;;
2021/06/22 06:37:23;;;;;;;;;18.25;18.25;;;;;20.80;62.71;100670.34;4943516;28;73893;-68
2021/06/22 06:40:04;;;;;;;;;;;;;;;;;;;;;
2021/06/22 06:42:34;;;;;;;;;17.50;16.50;;;;;20.62;62.67;100655.44;4960845;28;73173;-69
2021/06/22 06:45:17;;;;;;;;;;;;;;;;;;;;;
2021/06/22 06:47:54;;;;;;;;;20.25;19.25;;;;;20.50;62.90;100624.69;4935274;28;73882;-68
2021/06/22 06:50:21;;;;;;;;;21.25;18.00;;;;;20.82;62.71;100675.63;4957716;28;47799;-70
2021/06/22 06:52:49;;;;;;;;;19.25;17.50;;;;;20.89;63.12;100679.59;4946806;28;45354;-72
2021/06/22 06:55:28;;;;;;;;;17.25;17.25;;;;;20.93;62.74;100681.09;4961735;28;45622;-71
2021/06/22 06:57:58;;;;;;;;;16.50;16.25;;;;;20.97;62.80;100692.59;4946303;28;45727;-70
2021/06/22 07:00:24;;;;;;;;;16.50;15.75;;;;;20.98;62.73;100695.19;4968493;28;45428;-69
2021/06/22 07:02:50;;;;;;;;;16.75;13.25;;;;;21.00;62.73;100695.94;4976777;28;45739;-71
2021/06/22 07:05:15;;;;;;;;;13.00;13.00;;;;;20.94;62.95;100690.09;4960862;28;45438;-71
2021/06/22 07:07:40;;;;;;;;;15.00;15.00;;;;;20.96;62.64;100702.56;4974820;28;45631;-72
2021/06/22 07:10:06;;;;;;;;;18.25;15.75;;;;;20.91;62.99;100686.66;4979411;28;56128;-71
2021/06/22 07:12:32;;;;;;;;;15.50;14.50;;;;;21.01;63.19;100702.22;4953752;28;45854;-71
2021/06/22 07:14:57;;;;;;;;;14.75;14.75;;;;;20.97;62.52;100701.59;4941690;28;45765;-72
2021/06/22 07:17:22;;;;;;;;;15.25;14.75;;;;;20.99;63.15;100706.91;4963602;28;46427;-72
2021/06/22 07:19:48;;;;;;;;;13.25;13.25;;;;;21.00;62.94;100697.75;4946741;28;56662;-72
2021/06/22 07:22:13;;;;;;;;;17.50;15.00;;;;;21.00;63.40;100712.22;4951616;28;45496;-71
2021/06/22 07:24:38;;;;;;;;;11.75;11.00;;;;;21.02;63.09;100710.25;4942263;28;45601;-71
2021/06/22 07:27:04;;;;;;;;;15.50;13.75;;;;;21.03;62.50;100708.38;4942916;28;49070;-71
2021/06/22 07:29:29;;;;;;;;;12.50;11.75;;;;;21.03;62.64;100708.38;4942275;28;45819;-71
2021/06/22 07:31:55;;;;;;;;;14.75;13.25;;;;;21.03;62.79;100702.94;4941939;28;67729;-71
2021/06/22 07:34:20;;;;;;;;;13.50;13.50;;;;;21.04;62.51;100689.28;4942438;28;45887;-72
2021/06/22 07:36:46;;;;;;;;;14.75;12.50;;;;;21.13;62.47;100703.13;4942589;28;45567;-71
2021/06/22 07:39:11;;;;;;;;;12.50;12.50;;;;;21.12;62.79;100691.41;4941801;28;65820;-71
2021/06/22 07:41:36;;;;;;;;;12.75;11.75;;;;;21.12;62.86;100695.94;4941188;28;45325;-72
2021/06/22 07:44:02;;;;;;;;;13.25;12.50;;;;;21.10;62.66;100694.22;4957072;28;45930;-72
2021/06/22 07:46:28;;;;;;;;;14.25;13.75;;;;;21.00;62.21;100693.22;4942575;28;45347;-71
2021/06/22 07:48:53;;;;;;;;;13.25;12.50;;;;;21.04;63.14;100693.84;4952960;28;70829;-72
2021/06/22 07:51:18;;;;;;;;;15.25;13.50;;;;;21.05;63.17;100696.44;4942304;28;45364;-72
2021/06/22 07:53:44;;;;;;;;;14.50;13.25;;;;;21.01;62.76;100686.78;4951007;28;45495;-71
2021/06/22 07:56:09;;;;;;;;;13.75;12.25;;;;;21.07;63.18;100701.75;4940152;28;60064;-72
2021/06/22 07:58:34;;;;;;;;;14.75;14.75;;;;;21.05;63.21;100704.56;4959663;28;59308;-71
2021/06/22 08:01:00;;;;;;;;;13.25;13.00;;;;;21.07;62.89;100709.88;4958388;28;57176;-71
2021/06/22 08:03:27;;;;;;;;;14.50;14.25;;;;;21.04;62.79;100710.13;4955891;28;45424;-72
2021/06/22 08:05:52;;;;;;;;;18.50;15.75;;;;;21.00;63.25;100705.91;4955810;28;45559;-70
2021/06/22 08:08:18;;;;;;;;;17.50;16.25;;;;;21.04;62.87;100715.56;4952609;28;45370;-70
2021/06/22 08:10:49;;;;;;;;;24.00;22.25;;;;;20.99;62.84;100721.31;4959963;28;45689;-70
2021/06/22 08:13:14;;;;;;;;;23.75;21.00;;;;;20.97;62.92;100725.16;4970005;28;45471;-70
2021/06/22 08:15:40;;;;;;;;;20.25;20.25;;;;;20.92;63.05;100725.50;4941050;28;62374;-70
2021/06/22 08:18:06;;;;;;;;;29.25;22.50;;;;;20.94;62.99;100738.94;4941675;28;46285;-70
2021/06/22 08:20:32;;;;;;;;;27.00;26.50;;;;;20.86;63.24;100725.97;4941998;28;45457;-69
2021/06/22 08:22:59;;;;;;;;;30.75;27.25;;;;;20.82;62.94;100721.75;4942020;28;45453;-71
2021/06/22 08:25:25;;;;;;;;;29.00;27.50;;;;;20.82;63.09;100727.19;4948392;28;45332;-70
2021/06/22 08:27:51;;;;;;;;;27.25;24.50;;;;;20.80;63.32;100735.44;4959000;28;45491;-71
2021/06/22 08:30:17;;;;;;;;;26.75;25.75;;;;;20.82;63.10;100738.88;4954780;28;45374;-70
2021/06/22 08:32:43;;;;;;;;;26.75;26.75;;;;;20.82;62.93;100738.88;4961505;28;45497;-70
2021/06/22 08:35:08;;;;;;;;;22.25;22.25;;;;;20.78;63.40;100731.09;4954924;28;45705;-70
2021/06/22 08:37:34;;;;;;;;;25.75;24.75;;;;;20.72;63.05;100733.28;4959366;28;45967;-70
2021/06/22 08:40:00;;;;;;;;;23.25;22.75;;;;;20.71;63.39;100728.88;4924374;28;45592;-70
2021/06/22 08:42:25;;;;;;;;;23.00;21.50;;;;;20.70;63.59;100731.69;4956623;28;45372;-70
2021/06/22 08:44:51;;;;;;;;;26.25;23.75;;;;;20.75;63.66;100736.75;4952928;28;68528;-70
2021/06/22 08:47:34;;;;;;;;;21.25;21.25;;;;;20.73;63.19;100731.44;4960150;28;45990;-70
2021/06/22 08:50:00;;;;;;;;;27.50;25.50;;;;;20.72;63.79;100732.44;4962321;28;45411;-70
2021/06/22 08:52:31;;;;;;;;;26.75;26.00;;;;;20.69;63.18;100738.94;4941584;28;45380;-70
2021/06/22 08:54:57;;;;;;;;;24.75;24.50;;;;;20.65;63.17;100737.44;4941262;28;45383;-70
2021/06/22 08:57:22;;;;;;;;;26.25;23.75;;;;;20.62;63.31;100736.78;4951182;28;59709;-70
2021/06/22 08:59:48;;;;;;;;;21.50;20.00;;;;;20.62;63.49;100742.22;4940977;28;45397;-70
2021/06/22 09:02:14;;;;;;;;;26.00;25.50;;;;;20.56;63.90;100735.38;4940348;28;45465;-70
2021/06/22 09:04:39;;;;;;;;;24.25;22.00;;;;;20.62;63.56;100736.78;4940056;28;45330;-70
2021/06/22 09:07:05;;;;;;;;;23.00;22.00;;;;;20.57;63.52;100734.41;4940524;28;71582;-70
2021/06/22 09:09:39;;;;;;;;;26.75;24.50;;;;;20.53;63.68;100720.22;4954808;28;67199;-70
2021/06/22 09:12:06;;;;;;;;;24.00;21.00;;;;;20.61;63.77;100743.19;4941050;28;45243;-70
2021/06/22 09:14:35;;;;;;;;;19.00;18.75;;;;;20.57;64.23;100734.41;4950271;28;45401;-70
2021/06/22 09:17:01;;;;;;;;;23.50;23.00;;;;;20.55;63.88;100730.97;4928013;28;46262;-70
2021/06/22 09:19:26;;;;;;;;;22.50;22.50;;;;;20.56;64.24;100743.50;4954067;28;45732;-70
2021/06/22 09:21:53;;;;;;;;;22.75;20.00;;;;;20.64;64.04;100743.84;4957933;28;45708;-70
2021/06/22 09:24:22;;;;;;;;;23.25;21.00;;;;;20.59;63.76;100735.16;4945294;28;45482;-70
2021/06/22 09:26:49;;;;;;;;;19.75;19.75;;;;;20.69;64.15;100743.50;4940919;28;45636;-69
2021/06/22 09:29:16;;;;;;;;;22.25;20.00;;;;;20.73;63.99;100755.84;4948746;28;45505;-70
2021/06/22 09:31:58;;;;;;;;;23.25;23.00;;;;;20.71;63.42;100747.84;4956341;28;45433;-70
2021/06/22 09:34:24;;;;;;;;;22.50;21.25;;;;;20.75;63.54;100753.03;4958193;28;45466;-70
2021/06/22 09:37:00;;;;;;;;;22.00;21.50;;;;;20.67;63.22;100740.91;4944336;28;47539;-70
2021/06/22 09:39:26;;;;;;;;;24.50;20.75;;;;;20.76;63.63;100749.34;4949036;28;45435;-70
2021/06/22 09:41:52;;;;;;;;;22.00;22.00;;;;;20.72;63.58;100738.72;4940396;28;45443;-70
2021/06/22 09:44:29;;;;;;;;;25.00;21.50;;;;;20.73;63.31;100737.75;4954835;28;45495;-70
2021/06/22 09:46:59;;;;;;;;;24.25;21.50;;;;;20.72;63.68;100730.56;4956263;28;46013;-70
2021/06/22 09:49:32;;;;;;;;;19.50;19.50;;;;;20.82;63.71;100738.88;4963995;28;45666;-70
2021/06/22 09:52:07;;;;;;;;;22.50;21.50;;;;;20.89;63.24;100759.13;4973659;28;45400;-71
2021/06/22 09:54:42;;;;;;;;;27.00;26.25;;;;;20.84;63.10;100752.34;4959246;28;45727;-71
2021/06/22 09:57:20;;;;;;;;;23.00;23.00;;;;;20.87;62.86;100769.25;4959667;28;45387;-71
2021/06/22 10:00:07;;;;;;;;;23.00;23.00;;;;;20.86;63.38;100766.66;4961025;28;45450;-70
2021/06/22 10:02:52;;;;;;;;;25.75;22.25;;;;;20.80;62.90;100772.53;4957834;28;45450;-70
2021/06/22 10:05:18;;;;;;;;;26.25;24.25;;;;;20.76;63.02;100779.19;4964750;28;45711;-70
2021/06/22 10:07:43;;;;;;;;;25.75;22.50;;;;;20.68;63.16;100775.19;4966921;28;45487;-70
2021/06/22 10:10:09;;;;;;;;;23.25;21.50;;;;;20.72;63.24;100775.84;4945609;28;45461;-70
2021/06/22 10:12:37;;;;;;;;;23.25;20.75;;;;;20.75;63.08;100775.59;4948444;28;45548;-70
2021/06/22 10:15:03;;;;;;;;;24.50;23.75;;;;;20.72;62.82;100760.41;4955005;28;45544;-70
2021/06/22 10:17:30;;;;;;;;;24.00;22.25;;;;;20.79;63.11;100789.81;4958307;28;45560;-70
2021/06/22 10:19:56;;;;;;;;;23.00;20.50;;;;;20.75;63.28;100791.00;4943922;28;45465;-70
2021/06/22 10:22:25;;;;;;;;;20.25;18.50;;;;;20.67;62.99;100792.44;4956285;28;45226;-70
2021/06/22 10:24:50;;;;;;;;;19.75;19.25;;;;;20.62;62.91;100796.44;4942503;28;45386;-70
2021/06/22 10:27:20;;;;;;;;;18.75;18.75;;;;;20.54;63.43;100791.59;4942058;28;62924;-71
2021/06/22 10:29:50;;;;;;;;;20.50;20.50;;;;;20.50;64.64;100803.66;4942898;28;45746;-70
2021/06/22 10:32:16;;;;;;;;;19.75;17.50;;;;;20.57;65.00;100810.34;4942948;28;45541;-70
2021/06/22 10:34:45;;;;;;;;;19.75;17.25;;;;;20.59;65.10;100821.06;4942534;28;45570;-69
2021/06/22 10:37:36;;;;;;;;;17.50;16.25;;;;;20.62;65.73;100831.72;4946412;28;46345;-71
2021/06/22 10:40:15;;;;;;;;;19.50;15.75;;;;;20.55;65.21;100852.97;4943571;28;45628;-70
2021/06/22 10:42:51;;;;;;;;;12.75;12.50;;;;;20.39;65.48;100852.34;4959895;28;45758;-70
2021/06/22 10:45:16;;;;;;;;;19.00;14.25;;;;;20.29;66.34;100844.88;4962174;28;45389;-70
2021/06/22 10:47:42;;;;;;;;;21.75;20.75;;;;;20.21;66.57;100841.84;4961541;28;48971;-70
2021/06/22 10:50:28;;;;;;;;;17.00;16.25;;;;;20.31;67.19;100859.19;4962776;28;45392;-70
2021/06/22 10:53:00;;;;;;;;;20.75;20.00;;;;;20.34;67.13;100849.97;4962933;28;45416;-70
2021/06/22 10:55:30;;;;;;;;;18.25;18.00;;;;;20.39;67.07;100863.19;4961487;28;45564;-70
2021/06/22 10:58:05;;;;;;;;;16.75;16.25;;;;;20.42;67.33;100862.97;4962630;28;46127;-70
2021/06/22 11:00:37;;;;;;;;;13.50;13.25;;;;;20.46;67.24;100867.19;4961337;28;45725;-70
2021/06/22 11:03:26;;;;;;;;;17.50;15.00;;;;;20.45;67.40;100873.59;4962857;28;45367;-70
2021/06/22 11:06:10;;;;;;;;;17.25;16.25;;;;;20.38;67.28;100888.56;4959611;28;45508;-70
2021/06/22 11:08:38;;;;;;;;;14.00;12.50;;;;;20.39;67.21;100888.44;4958406;28;45576;-70
2021/06/22 11:11:06;;;;;;;;;16.00;15.25;;;;;20.36;67.08;100894.09;4958898;28;45754;-70
2021/06/22 11:13:41;;;;;;;;;16.00;15.00;;;;;20.36;67.44;100908.53;4961094;28;45548;-70
2021/06/22 11:16:13;;;;;;;;;14.00;12.50;;;;;20.33;67.16;100911.47;4954995;28;45369;-71
2021/06/22 11:18:50;;;;;;;;;10.25;10.25;;;;;20.33;67.10;100908.75;4958351;28;46516;-70
2021/06/22 11:21:36;;;;;;;;;9.25;8.00;;;;;20.27;66.76;100895.63;4958618;28;45445;-69
2021/06/22 11:24:04;;;;;;;;;11.75;10.50;;;;;20.22;66.73;100896.94;4950468;28;45638;-70
2021/06/22 11:26:39;;;;;;;;;8.50;8.50;;;;;20.13;66.84;100893.00;4950646;28;45547;-70